Terminal Aerodrome Forecast
Issued by NWS Wilmington, NC

Home | Current Version | Previous Version | Text Only | Print | Product List | Glossary On
Versions: 1 2 3 4 5 6 7 8 9 10 11 12 13
000
FTUS42 KILM 201720
TAFFLO
TAF
KFLO 201720Z 2018/2118 25006KT P6SM FEW035 BKN045 BKN080
     FM210600 22002KT P6SM BKN050
     FM210900 22002KT 1SM BR BKN050
     FM211500 18003KT 4SM BR OVC015=

USA.gov is the U.S. government's official web portal to all federal, state and local government web resources and services.